sensor_id;sensor_type;location;lat;lon;timestamp;P1;durP1;ratioP1;P2;durP2;ratioP2
30818;SDS011;17546;42.674;23.284;2023-11-22T00:02:01;51.17;;;23.70;;
30818;SDS011;17546;42.674;23.284;2023-11-22T00:04:27;44.95;;;23.73;;
30818;SDS011;17546;42.674;23.284;2023-11-22T00:06:52;45.83;;;22.55;;
30818;SDS011;17546;42.674;23.284;2023-11-22T00:09:18;52.05;;;23.45;;
30818;SDS011;17546;42.674;23.284;2023-11-22T00:11:47;51.13;;;23.10;;
30818;SDS011;17546;42.674;23.284;2023-11-22T00:14:12;44.03;;;22.90;;
30818;SDS011;17546;42.674;23.284;2023-11-22T00:16:38;52.70;;;24.02;;
30818;SDS011;17546;42.674;23.284;2023-11-22T00:19:05;46.33;;;23.27;;
30818;SDS011;17546;42.674;23.284;2023-11-22T00:21:31;43.70;;;22.13;;
30818;SDS011;17546;42.674;23.284;2023-11-22T00:23:57;46.00;;;22.80;;
30818;SDS011;17546;42.674;23.284;2023-11-22T00:26:22;43.75;;;23.25;;
30818;SDS011;17546;42.674;23.284;2023-11-22T00:28:48;47.63;;;22.80;;
30818;SDS011;17546;42.674;23.284;2023-11-22T00:31:14;46.22;;;23.13;;
30818;SDS011;17546;42.674;23.284;2023-11-22T00:33:40;47.35;;;22.58;;
30818;SDS011;17546;42.674;23.284;2023-11-22T00:36:06;43.40;;;23.38;;
30818;SDS011;17546;42.674;23.284;2023-11-22T00:38:33;47.92;;;23.92;;
30818;SDS011;17546;42.674;23.284;2023-11-22T00:41:01;44.90;;;21.92;;
30818;SDS011;17546;42.674;23.284;2023-11-22T00:43:27;49.35;;;22.02;;
30818;SDS011;17546;42.674;23.284;2023-11-22T00:45:53;46.38;;;22.85;;
30818;SDS011;17546;42.674;23.284;2023-11-22T00:48:18;54.10;;;22.77;;
30818;SDS011;17546;42.674;23.284;2023-11-22T00:50:44;45.60;;;22.55;;
30818;SDS011;17546;42.674;23.284;2023-11-22T00:53:09;50.72;;;22.88;;
30818;SDS011;17546;42.674;23.284;2023-11-22T00:55:35;44.97;;;21.52;;
30818;SDS011;17546;42.674;23.284;2023-11-22T00:58:00;43.08;;;22.05;;
30818;SDS011;17546;42.674;23.284;2023-11-22T01:00:29;44.83;;;21.50;;
30818;SDS011;17546;42.674;23.284;2023-11-22T01:02:55;41.05;;;20.98;;
30818;SDS011;17546;42.674;23.284;2023-11-22T01:05:20;42.35;;;22.05;;
30818;SDS011;17546;42.674;23.284;2023-11-22T01:07:47;41.38;;;21.33;;
30818;SDS011;17546;42.674;23.284;2023-11-22T01:10:13;44.45;;;21.65;;
30818;SDS011;17546;42.674;23.284;2023-11-22T01:12:38;40.58;;;20.60;;
30818;SDS011;17546;42.674;23.284;2023-11-22T01:15:04;36.03;;;19.92;;
30818;SDS011;17546;42.674;23.284;2023-11-22T01:17:31;40.42;;;20.60;;
30818;SDS011;17546;42.674;23.284;2023-11-22T01:19:56;43.85;;;20.45;;
30818;SDS011;17546;42.674;23.284;2023-11-22T01:22:23;39.85;;;20.17;;
30818;SDS011;17546;42.674;23.284;2023-11-22T01:24:49;37.58;;;20.60;;
30818;SDS011;17546;42.674;23.284;2023-11-22T01:27:14;38.90;;;20.05;;
30818;SDS011;17546;42.674;23.284;2023-11-22T01:29:40;41.72;;;19.90;;
30818;SDS011;17546;42.674;23.284;2023-11-22T01:32:06;35.53;;;19.40;;
30818;SDS011;17546;42.674;23.284;2023-11-22T01:34:32;35.42;;;19.23;;
30818;SDS011;17546;42.674;23.284;2023-11-22T01:36:57;38.25;;;20.27;;
30818;SDS011;17546;42.674;23.284;2023-11-22T01:39:23;37.22;;;19.27;;
30818;SDS011;17546;42.674;23.284;2023-11-22T01:41:48;40.47;;;20.33;;
30818;SDS011;17546;42.674;23.284;2023-11-22T01:44:15;36.95;;;20.23;;
30818;SDS011;17546;42.674;23.284;2023-11-22T01:46:41;41.90;;;19.75;;
30818;SDS011;17546;42.674;23.284;2023-11-22T01:49:08;36.55;;;18.60;;
30818;SDS011;17546;42.674;23.284;2023-11-22T01:51:35;35.67;;;19.33;;
30818;SDS011;17546;42.674;23.284;2023-11-22T01:54:01;41.40;;;19.20;;
30818;SDS011;17546;42.674;23.284;2023-11-22T01:56:27;42.00;;;19.70;;
30818;SDS011;17546;42.674;23.284;2023-11-22T01:58:54;38.90;;;19.98;;
30818;SDS011;17546;42.674;23.284;2023-11-22T02:01:21;43.55;;;20.17;;
30818;SDS011;17546;42.674;23.284;2023-11-22T02:03:47;38.58;;;19.48;;
30818;SDS011;17546;42.674;23.284;2023-11-22T02:06:15;33.55;;;18.27;;
30818;SDS011;17546;42.674;23.284;2023-11-22T02:08:43;38.83;;;19.58;;
30818;SDS011;17546;42.674;23.284;2023-11-22T02:11:09;40.13;;;19.83;;
30818;SDS011;17546;42.674;23.284;2023-11-22T02:13:35;39.38;;;19.52;;
30818;SDS011;17546;42.674;23.284;2023-11-22T02:16:01;39.28;;;19.10;;
30818;SDS011;17546;42.674;23.284;2023-11-22T02:18:28;36.08;;;19.25;;
30818;SDS011;17546;42.674;23.284;2023-11-22T02:20:54;38.75;;;18.67;;
30818;SDS011;17546;42.674;23.284;2023-11-22T02:23:20;35.35;;;18.92;;
30818;SDS011;17546;42.674;23.284;2023-11-22T02:25:45;35.13;;;18.63;;
30818;SDS011;17546;42.674;23.284;2023-11-22T02:28:11;41.05;;;20.20;;
30818;SDS011;17546;42.674;23.284;2023-11-22T02:30:37;40.72;;;18.65;;
30818;SDS011;17546;42.674;23.284;2023-11-22T02:33:04;39.00;;;18.25;;
30818;SDS011;17546;42.674;23.284;2023-11-22T02:35:32;38.67;;;18.45;;
30818;SDS011;17546;42.674;23.284;2023-11-22T02:37:58;36.65;;;18.05;;
30818;SDS011;17546;42.674;23.284;2023-11-22T02:40:25;35.05;;;18.35;;
30818;SDS011;17546;42.674;23.284;2023-11-22T02:42:51;35.80;;;18.83;;
30818;SDS011;17546;42.674;23.284;2023-11-22T02:45:32;38.47;;;19.20;;
30818;SDS011;17546;42.674;23.284;2023-11-22T02:47:58;37.00;;;18.65;;
30818;SDS011;17546;42.674;23.284;2023-11-22T02:50:26;35.45;;;18.35;;
30818;SDS011;17546;42.674;23.284;2023-11-22T02:52:52;37.85;;;18.13;;
30818;SDS011;17546;42.674;23.284;2023-11-22T02:55:18;33.95;;;18.00;;
30818;SDS011;17546;42.674;23.284;2023-11-22T02:57:44;36.58;;;17.77;;
30818;SDS011;17546;42.674;23.284;2023-11-22T03:00:10;33.15;;;18.63;;
30818;SDS011;17546;42.674;23.284;2023-11-22T03:02:39;36.78;;;17.25;;
30818;SDS011;17546;42.674;23.284;2023-11-22T03:05:08;30.85;;;16.90;;
30818;SDS011;17546;42.674;23.284;2023-11-22T03:07:37;32.45;;;17.42;;
30818;SDS011;17546;42.674;23.284;2023-11-22T03:10:04;34.17;;;17.75;;
30818;SDS011;17546;42.674;23.284;2023-11-22T03:12:32;33.03;;;17.67;;
30818;SDS011;17546;42.674;23.284;2023-11-22T03:14:58;33.45;;;17.10;;
30818;SDS011;17546;42.674;23.284;2023-11-22T03:17:27;30.75;;;16.42;;
30818;SDS011;17546;42.674;23.284;2023-11-22T03:19:54;33.90;;;18.48;;
30818;SDS011;17546;42.674;23.284;2023-11-22T03:22:22;32.85;;;17.20;;
30818;SDS011;17546;42.674;23.284;2023-11-22T03:24:49;30.17;;;17.45;;
30818;SDS011;17546;42.674;23.284;2023-11-22T03:27:14;33.13;;;17.58;;
30818;SDS011;17546;42.674;23.284;2023-11-22T03:29:40;33.30;;;18.10;;
30818;SDS011;17546;42.674;23.284;2023-11-22T03:32:06;34.08;;;17.95;;
30818;SDS011;17546;42.674;23.284;2023-11-22T03:34:31;30.05;;;16.73;;
30818;SDS011;17546;42.674;23.284;2023-11-22T03:36:56;31.92;;;17.38;;
30818;SDS011;17546;42.674;23.284;2023-11-22T03:39:22;29.70;;;17.65;;
30818;SDS011;17546;42.674;23.284;2023-11-22T03:41:48;31.10;;;17.33;;
30818;SDS011;17546;42.674;23.284;2023-11-22T03:44:13;36.30;;;18.58;;
30818;SDS011;17546;42.674;23.284;2023-11-22T03:46:39;33.60;;;17.80;;
30818;SDS011;17546;42.674;23.284;2023-11-22T03:49:05;33.70;;;17.40;;
30818;SDS011;17546;42.674;23.284;2023-11-22T03:51:34;29.95;;;16.73;;
30818;SDS011;17546;42.674;23.284;2023-11-22T03:54:00;32.90;;;18.33;;
30818;SDS011;17546;42.674;23.284;2023-11-22T03:56:27;30.58;;;17.27;;
30818;SDS011;17546;42.674;23.284;2023-11-22T03:58:53;41.00;;;18.48;;
30818;SDS011;17546;42.674;23.284;2023-11-22T04:01:19;34.88;;;18.30;;
30818;SDS011;17546;42.674;23.284;2023-11-22T04:03:46;38.75;;;18.27;;
30818;SDS011;17546;42.674;23.284;2023-11-22T04:06:13;43.03;;;22.65;;
30818;SDS011;17546;42.674;23.284;2023-11-22T04:08:44;49.38;;;24.45;;
30818;SDS011;17546;42.674;23.284;2023-11-22T04:11:14;50.83;;;25.20;;
30818;SDS011;17546;42.674;23.284;2023-11-22T04:13:40;44.33;;;24.33;;
30818;SDS011;17546;42.674;23.284;2023-11-22T04:16:09;46.78;;;24.30;;
30818;SDS011;17546;42.674;23.284;2023-11-22T04:18:37;42.42;;;23.27;;
30818;SDS011;17546;42.674;23.284;2023-11-22T04:21:03;43.55;;;22.48;;
30818;SDS011;17546;42.674;23.284;2023-11-22T04:23:30;46.88;;;21.35;;
30818;SDS011;17546;42.674;23.284;2023-11-22T04:25:56;44.28;;;21.60;;
30818;SDS011;17546;42.674;23.284;2023-11-22T04:28:23;40.78;;;20.13;;
30818;SDS011;17546;42.674;23.284;2023-11-22T04:30:50;52.88;;;20.05;;
30818;SDS011;17546;42.674;23.284;2023-11-22T04:33:17;35.20;;;17.25;;
30818;SDS011;17546;42.674;23.284;2023-11-22T04:35:42;38.25;;;18.92;;
30818;SDS011;17546;42.674;23.284;2023-11-22T04:38:08;38.22;;;18.35;;
30818;SDS011;17546;42.674;23.284;2023-11-22T04:40:33;41.70;;;17.75;;
30818;SDS011;17546;42.674;23.284;2023-11-22T04:42:59;40.08;;;17.33;;
30818;SDS011;17546;42.674;23.284;2023-11-22T04:45:24;37.78;;;17.63;;
30818;SDS011;17546;42.674;23.284;2023-11-22T04:47:50;34.05;;;16.80;;
30818;SDS011;17546;42.674;23.284;2023-11-22T04:50:15;41.13;;;17.75;;
30818;SDS011;17546;42.674;23.284;2023-11-22T04:52:41;41.72;;;17.65;;
30818;SDS011;17546;42.674;23.284;2023-11-22T04:55:06;34.08;;;16.90;;
30818;SDS011;17546;42.674;23.284;2023-11-22T04:57:33;32.78;;;17.15;;
30818;SDS011;17546;42.674;23.284;2023-11-22T04:59:58;38.05;;;17.63;;
30818;SDS011;17546;42.674;23.284;2023-11-22T05:02:25;44.75;;;23.33;;
30818;SDS011;17546;42.674;23.284;2023-11-22T05:04:52;45.95;;;20.67;;
30818;SDS011;17546;42.674;23.284;2023-11-22T05:07:18;41.10;;;21.40;;
30818;SDS011;17546;42.674;23.284;2023-11-22T05:09:44;44.40;;;20.83;;
30818;SDS011;17546;42.674;23.284;2023-11-22T05:12:10;33.28;;;19.42;;
30818;SDS011;17546;42.674;23.284;2023-11-22T05:14:36;36.17;;;19.60;;
30818;SDS011;17546;42.674;23.284;2023-11-22T05:17:02;44.35;;;17.20;;
30818;SDS011;17546;42.674;23.284;2023-11-22T05:19:29;36.67;;;18.35;;
30818;SDS011;17546;42.674;23.284;2023-11-22T05:21:55;35.13;;;19.00;;
30818;SDS011;17546;42.674;23.284;2023-11-22T05:24:20;35.03;;;18.75;;
30818;SDS011;17546;42.674;23.284;2023-11-22T05:26:46;36.05;;;19.70;;
30818;SDS011;17546;42.674;23.284;2023-11-22T05:29:11;33.90;;;17.95;;
30818;SDS011;17546;42.674;23.284;2023-11-22T05:31:37;35.17;;;17.48;;
30818;SDS011;17546;42.674;23.284;2023-11-22T05:34:02;37.22;;;17.70;;
30818;SDS011;17546;42.674;23.284;2023-11-22T05:36:28;31.83;;;17.13;;
30818;SDS011;17546;42.674;23.284;2023-11-22T05:38:54;36.95;;;17.98;;
30818;SDS011;17546;42.674;23.284;2023-11-22T05:41:23;34.33;;;18.02;;
30818;SDS011;17546;42.674;23.284;2023-11-22T05:43:53;33.85;;;17.75;;
30818;SDS011;17546;42.674;23.284;2023-11-22T05:46:19;34.22;;;17.17;;
30818;SDS011;17546;42.674;23.284;2023-11-22T05:48:50;33.72;;;17.63;;
30818;SDS011;17546;42.674;23.284;2023-11-22T05:51:16;39.28;;;18.42;;
30818;SDS011;17546;42.674;23.284;2023-11-22T05:53:42;34.63;;;17.42;;
30818;SDS011;17546;42.674;23.284;2023-11-22T05:56:07;39.47;;;18.63;;
30818;SDS011;17546;42.674;23.284;2023-11-22T05:58:34;39.47;;;20.17;;
30818;SDS011;17546;42.674;23.284;2023-11-22T06:01:03;34.83;;;19.20;;
30818;SDS011;17546;42.674;23.284;2023-11-22T06:03:30;36.75;;;18.15;;
30818;SDS011;17546;42.674;23.284;2023-11-22T06:05:57;35.42;;;18.70;;
30818;SDS011;17546;42.674;23.284;2023-11-22T06:08:25;40.38;;;19.05;;
30818;SDS011;17546;42.674;23.284;2023-11-22T06:10:52;41.15;;;20.50;;
30818;SDS011;17546;42.674;23.284;2023-11-22T06:13:19;41.47;;;21.00;;
30818;SDS011;17546;42.674;23.284;2023-11-22T06:15:45;43.25;;;20.73;;
30818;SDS011;17546;42.674;23.284;2023-11-22T06:18:12;39.55;;;21.50;;
30818;SDS011;17546;42.674;23.284;2023-11-22T06:20:39;43.55;;;21.75;;
30818;SDS011;17546;42.674;23.284;2023-11-22T06:23:05;42.42;;;22.38;;
30818;SDS011;17546;42.674;23.284;2023-11-22T06:25:30;46.70;;;22.20;;
30818;SDS011;17546;42.674;23.284;2023-11-22T06:27:56;38.88;;;21.23;;
30818;SDS011;17546;42.674;23.284;2023-11-22T06:30:21;42.40;;;21.77;;
30818;SDS011;17546;42.674;23.284;2023-11-22T06:32:49;37.75;;;21.92;;
30818;SDS011;17546;42.674;23.284;2023-11-22T06:35:14;41.80;;;21.60;;
30818;SDS011;17546;42.674;23.284;2023-11-22T06:37:40;40.78;;;23.52;;
30818;SDS011;17546;42.674;23.284;2023-11-22T06:40:06;40.83;;;23.45;;
30818;SDS011;17546;42.674;23.284;2023-11-22T06:42:33;63.67;;;28.65;;
30818;SDS011;17546;42.674;23.284;2023-11-22T06:44:58;51.28;;;26.58;;
30818;SDS011;17546;42.674;23.284;2023-11-22T06:47:25;42.08;;;24.33;;
30818;SDS011;17546;42.674;23.284;2023-11-22T06:49:52;97.40;;;48.85;;
30818;SDS011;17546;42.674;23.284;2023-11-22T06:52:18;60.10;;;31.42;;
30818;SDS011;17546;42.674;23.284;2023-11-22T06:54:44;53.00;;;26.40;;
30818;SDS011;17546;42.674;23.284;2023-11-22T06:57:10;58.75;;;28.10;;
30818;SDS011;17546;42.674;23.284;2023-11-22T06:59:35;46.45;;;25.13;;
30818;SDS011;17546;42.674;23.284;2023-11-22T07:02:00;48.03;;;25.08;;
30818;SDS011;17546;42.674;23.284;2023-11-22T07:04:27;55.30;;;26.85;;
30818;SDS011;17546;42.674;23.284;2023-11-22T07:06:54;48.60;;;25.20;;
30818;SDS011;17546;42.674;23.284;2023-11-22T07:09:19;49.55;;;25.63;;
30818;SDS011;17546;42.674;23.284;2023-11-22T07:11:45;41.67;;;23.67;;
30818;SDS011;17546;42.674;23.284;2023-11-22T07:14:10;46.08;;;22.95;;
30818;SDS011;17546;42.674;23.284;2023-11-22T07:16:35;41.20;;;22.95;;
30818;SDS011;17546;42.674;23.284;2023-11-22T07:19:02;51.13;;;24.13;;
30818;SDS011;17546;42.674;23.284;2023-11-22T07:21:29;46.50;;;24.73;;
30818;SDS011;17546;42.674;23.284;2023-11-22T07:23:57;48.55;;;24.60;;
30818;SDS011;17546;42.674;23.284;2023-11-22T07:26:24;48.72;;;25.13;;
30818;SDS011;17546;42.674;23.284;2023-11-22T07:28:51;50.38;;;24.50;;
30818;SDS011;17546;42.674;23.284;2023-11-22T07:31:17;56.28;;;25.73;;
30818;SDS011;17546;42.674;23.284;2023-11-22T07:33:43;46.38;;;24.45;;
30818;SDS011;17546;42.674;23.284;2023-11-22T07:36:08;48.42;;;25.70;;
30818;SDS011;17546;42.674;23.284;2023-11-22T07:38:34;42.38;;;23.83;;
30818;SDS011;17546;42.674;23.284;2023-11-22T07:41:00;38.55;;;21.30;;
30818;SDS011;17546;42.674;23.284;2023-11-22T07:43:25;43.83;;;21.75;;
30818;SDS011;17546;42.674;23.284;2023-11-22T07:45:51;40.58;;;22.25;;
30818;SDS011;17546;42.674;23.284;2023-11-22T07:48:16;46.47;;;23.30;;
30818;SDS011;17546;42.674;23.284;2023-11-22T07:50:42;48.72;;;24.02;;
30818;SDS011;17546;42.674;23.284;2023-11-22T07:53:14;44.30;;;23.27;;
30818;SDS011;17546;42.674;23.284;2023-11-22T07:55:39;49.40;;;25.75;;
30818;SDS011;17546;42.674;23.284;2023-11-22T07:58:07;51.70;;;28.15;;
30818;SDS011;17546;42.674;23.284;2023-11-22T08:00:33;43.20;;;23.55;;
30818;SDS011;17546;42.674;23.284;2023-11-22T08:03:02;34.08;;;19.10;;
30818;SDS011;17546;42.674;23.284;2023-11-22T08:05:31;35.92;;;19.75;;
30818;SDS011;17546;42.674;23.284;2023-11-22T08:08:04;43.67;;;19.55;;
30818;SDS011;17546;42.674;23.284;2023-11-22T08:10:36;35.28;;;19.85;;
30818;SDS011;17546;42.674;23.284;2023-11-22T08:13:01;35.75;;;20.63;;
30818;SDS011;17546;42.674;23.284;2023-11-22T08:15:28;48.55;;;23.25;;
30818;SDS011;17546;42.674;23.284;2023-11-22T08:17:53;42.40;;;19.60;;
30818;SDS011;17546;42.674;23.284;2023-11-22T08:20:19;30.35;;;18.17;;
30818;SDS011;17546;42.674;23.284;2023-11-22T08:22:45;35.20;;;17.70;;
30818;SDS011;17546;42.674;23.284;2023-11-22T08:25:11;30.45;;;17.67;;
30818;SDS011;17546;42.674;23.284;2023-11-22T08:27:40;35.65;;;19.02;;
30818;SDS011;17546;42.674;23.284;2023-11-22T08:30:07;33.72;;;18.17;;
30818;SDS011;17546;42.674;23.284;2023-11-22T08:32:38;31.92;;;16.52;;
30818;SDS011;17546;42.674;23.284;2023-11-22T08:35:11;29.95;;;16.17;;
30818;SDS011;17546;42.674;23.284;2023-11-22T08:37:36;32.60;;;16.73;;
30818;SDS011;17546;42.674;23.284;2023-11-22T08:40:05;34.97;;;18.25;;
30818;SDS011;17546;42.674;23.284;2023-11-22T08:42:31;41.45;;;20.08;;
30818;SDS011;17546;42.674;23.284;2023-11-22T08:44:57;36.65;;;20.15;;
30818;SDS011;17546;42.674;23.284;2023-11-22T08:47:23;37.25;;;19.95;;
30818;SDS011;17546;42.674;23.284;2023-11-22T08:49:48;42.10;;;20.58;;
30818;SDS011;17546;42.674;23.284;2023-11-22T08:52:14;37.30;;;19.98;;
30818;SDS011;17546;42.674;23.284;2023-11-22T08:54:39;42.47;;;21.13;;
30818;SDS011;17546;42.674;23.284;2023-11-22T08:57:08;49.53;;;21.02;;
30818;SDS011;17546;42.674;23.284;2023-11-22T08:59:33;44.53;;;21.73;;
30818;SDS011;17546;42.674;23.284;2023-11-22T09:02:03;47.28;;;23.35;;
30818;SDS011;17546;42.674;23.284;2023-11-22T09:04:29;47.15;;;23.75;;
30818;SDS011;17546;42.674;23.284;2023-11-22T09:06:56;54.47;;;27.27;;
30818;SDS011;17546;42.674;23.284;2023-11-22T09:09:23;52.90;;;31.02;;
30818;SDS011;17546;42.674;23.284;2023-11-22T09:11:56;60.40;;;30.85;;
30818;SDS011;17546;42.674;23.284;2023-11-22T09:14:22;55.75;;;30.95;;
30818;SDS011;17546;42.674;23.284;2023-11-22T09:16:49;65.82;;;35.70;;
30818;SDS011;17546;42.674;23.284;2023-11-22T09:19:23;61.53;;;34.55;;
30818;SDS011;17546;42.674;23.284;2023-11-22T09:21:49;71.40;;;37.95;;
30818;SDS011;17546;42.674;23.284;2023-11-22T09:24:15;67.70;;;36.22;;
30818;SDS011;17546;42.674;23.284;2023-11-22T09:26:40;66.15;;;35.58;;
30818;SDS011;17546;42.674;23.284;2023-11-22T09:29:07;61.45;;;35.42;;
30818;SDS011;17546;42.674;23.284;2023-11-22T09:31:35;63.88;;;33.33;;
30818;SDS011;17546;42.674;23.284;2023-11-22T09:34:01;63.47;;;30.15;;
30818;SDS011;17546;42.674;23.284;2023-11-22T09:36:28;47.55;;;28.00;;
30818;SDS011;17546;42.674;23.284;2023-11-22T09:38:57;59.78;;;33.30;;
30818;SDS011;17546;42.674;23.284;2023-11-22T09:41:23;58.05;;;29.48;;
30818;SDS011;17546;42.674;23.284;2023-11-22T09:43:50;44.90;;;24.50;;
30818;SDS011;17546;42.674;23.284;2023-11-22T09:46:15;53.53;;;29.17;;
30818;SDS011;17546;42.674;23.284;2023-11-22T09:48:45;43.60;;;26.23;;
30818;SDS011;17546;42.674;23.284;2023-11-22T09:51:26;41.50;;;25.33;;
30818;SDS011;17546;42.674;23.284;2023-11-22T09:53:56;45.38;;;25.92;;
30818;SDS011;17546;42.674;23.284;2023-11-22T09:56:29;44.35;;;26.63;;
30818;SDS011;17546;42.674;23.284;2023-11-22T09:58:57;44.10;;;26.70;;
30818;SDS011;17546;42.674;23.284;2023-11-22T10:01:25;43.20;;;24.30;;
30818;SDS011;17546;42.674;23.284;2023-11-22T10:03:54;44.25;;;22.52;;
30818;SDS011;17546;42.674;23.284;2023-11-22T10:06:20;38.72;;;23.13;;
30818;SDS011;17546;42.674;23.284;2023-11-22T10:08:46;45.10;;;23.58;;
30818;SDS011;17546;42.674;23.284;2023-11-22T10:11:17;41.67;;;23.27;;
30818;SDS011;17546;42.674;23.284;2023-11-22T10:13:43;36.67;;;22.65;;
30818;SDS011;17546;42.674;23.284;2023-11-22T10:16:13;37.05;;;20.95;;
30818;SDS011;17546;42.674;23.284;2023-11-22T10:18:44;35.28;;;20.98;;
30818;SDS011;17546;42.674;23.284;2023-11-22T10:23:55;37.55;;;20.35;;
30818;SDS011;17546;42.674;23.284;2023-11-22T10:26:21;42.30;;;22.00;;
30818;SDS011;17546;42.674;23.284;2023-11-22T10:28:50;38.65;;;21.08;;
30818;SDS011;17546;42.674;23.284;2023-11-22T10:31:17;35.78;;;22.33;;
30818;SDS011;17546;42.674;23.284;2023-11-22T10:33:44;36.17;;;21.42;;
30818;SDS011;17546;42.674;23.284;2023-11-22T10:36:09;38.38;;;21.10;;
30818;SDS011;17546;42.674;23.284;2023-11-22T10:38:35;41.00;;;21.88;;
30818;SDS011;17546;42.674;23.284;2023-11-22T10:41:04;37.88;;;21.75;;
30818;SDS011;17546;42.674;23.284;2023-11-22T10:43:30;44.80;;;24.00;;
30818;SDS011;17546;42.674;23.284;2023-11-22T10:46:00;38.80;;;21.77;;
30818;SDS011;17546;42.674;23.284;2023-11-22T10:48:27;35.33;;;20.40;;
30818;SDS011;17546;42.674;23.284;2023-11-22T10:50:54;38.45;;;21.75;;
30818;SDS011;17546;42.674;23.284;2023-11-22T10:53:22;40.80;;;20.88;;
30818;SDS011;17546;42.674;23.284;2023-11-22T10:56:02;35.53;;;19.83;;
30818;SDS011;17546;42.674;23.284;2023-11-22T10:58:30;33.85;;;20.92;;
30818;SDS011;17546;42.674;23.284;2023-11-22T11:00:57;38.47;;;19.67;;
30818;SDS011;17546;42.674;23.284;2023-11-22T11:03:23;36.22;;;20.70;;
30818;SDS011;17546;42.674;23.284;2023-11-22T11:05:58;39.35;;;20.40;;
30818;SDS011;17546;42.674;23.284;2023-11-22T11:08:30;36.30;;;21.42;;
30818;SDS011;17546;42.674;23.284;2023-11-22T11:10:57;37.22;;;20.90;;
30818;SDS011;17546;42.674;23.284;2023-11-22T11:13:23;33.58;;;20.23;;
30818;SDS011;17546;42.674;23.284;2023-11-22T11:15:49;42.40;;;21.83;;
30818;SDS011;17546;42.674;23.284;2023-11-22T11:18:17;37.33;;;21.13;;
30818;SDS011;17546;42.674;23.284;2023-11-22T11:20:50;35.08;;;21.58;;
30818;SDS011;17546;42.674;23.284;2023-11-22T11:23:27;38.20;;;21.45;;
30818;SDS011;17546;42.674;23.284;2023-11-22T11:25:55;33.97;;;20.48;;
30818;SDS011;17546;42.674;23.284;2023-11-22T11:28:25;33.88;;;20.90;;
30818;SDS011;17546;42.674;23.284;2023-11-22T11:30:51;39.33;;;21.67;;
30818;SDS011;17546;42.674;23.284;2023-11-22T11:33:19;45.53;;;23.05;;
30818;SDS011;17546;42.674;23.284;2023-11-22T11:35:51;40.45;;;21.00;;
30818;SDS011;17546;42.674;23.284;2023-11-22T11:38:20;42.95;;;23.73;;
30818;SDS011;17546;42.674;23.284;2023-11-22T11:40:46;44.83;;;24.27;;
30818;SDS011;17546;42.674;23.284;2023-11-22T11:43:13;44.97;;;25.08;;
30818;SDS011;17546;42.674;23.284;2023-11-22T11:45:39;45.10;;;25.77;;
30818;SDS011;17546;42.674;23.284;2023-11-22T11:50:41;47.95;;;25.05;;
30818;SDS011;17546;42.674;23.284;2023-11-22T11:53:07;43.28;;;24.02;;
30818;SDS011;17546;42.674;23.284;2023-11-22T11:55:33;43.05;;;24.52;;
30818;SDS011;17546;42.674;23.284;2023-11-22T11:58:04;40.08;;;23.55;;
30818;SDS011;17546;42.674;23.284;2023-11-22T12:00:30;36.83;;;23.23;;
30818;SDS011;17546;42.674;23.284;2023-11-22T12:02:59;40.13;;;23.77;;
30818;SDS011;17546;42.674;23.284;2023-11-22T12:05:24;43.90;;;24.08;;
30818;SDS011;17546;42.674;23.284;2023-11-22T12:07:53;48.63;;;25.38;;
30818;SDS011;17546;42.674;23.284;2023-11-22T12:10:18;39.10;;;23.67;;
30818;SDS011;17546;42.674;23.284;2023-11-22T12:12:44;45.10;;;28.02;;
30818;SDS011;17546;42.674;23.284;2023-11-22T12:15:13;62.17;;;28.80;;
30818;SDS011;17546;42.674;23.284;2023-11-22T12:17:40;59.40;;;32.40;;
30818;SDS011;17546;42.674;23.284;2023-11-22T12:20:11;57.38;;;34.47;;
30818;SDS011;17546;42.674;23.284;2023-11-22T12:22:40;69.30;;;42.72;;
30818;SDS011;17546;42.674;23.284;2023-11-22T12:25:07;74.72;;;45.03;;
30818;SDS011;17546;42.674;23.284;2023-11-22T12:27:32;80.55;;;50.95;;
30818;SDS011;17546;42.674;23.284;2023-11-22T12:29:58;94.82;;;57.42;;
30818;SDS011;17546;42.674;23.284;2023-11-22T12:32:24;98.80;;;59.05;;
30818;SDS011;17546;42.674;23.284;2023-11-22T12:34:50;91.57;;;56.10;;
30818;SDS011;17546;42.674;23.284;2023-11-22T12:37:20;78.45;;;46.08;;
30818;SDS011;17546;42.674;23.284;2023-11-22T12:39:47;63.35;;;38.95;;
30818;SDS011;17546;42.674;23.284;2023-11-22T12:42:13;76.57;;;41.05;;
30818;SDS011;17546;42.674;23.284;2023-11-22T12:44:48;70.35;;;39.78;;
30818;SDS011;17546;42.674;23.284;2023-11-22T12:47:14;72.40;;;41.47;;
30818;SDS011;17546;42.674;23.284;2023-11-22T12:49:47;67.43;;;40.38;;
30818;SDS011;17546;42.674;23.284;2023-11-22T12:52:12;66.70;;;39.33;;
30818;SDS011;17546;42.674;23.284;2023-11-22T12:54:39;67.88;;;36.15;;
30818;SDS011;17546;42.674;23.284;2023-11-22T12:57:10;67.90;;;32.40;;
30818;SDS011;17546;42.674;23.284;2023-11-22T12:59:37;51.08;;;30.80;;
30818;SDS011;17546;42.674;23.284;2023-11-22T13:02:05;51.03;;;28.23;;
30818;SDS011;17546;42.674;23.284;2023-11-22T13:04:31;43.38;;;22.65;;
30818;SDS011;17546;42.674;23.284;2023-11-22T13:06:58;41.30;;;24.58;;
30818;SDS011;17546;42.674;23.284;2023-11-22T13:09:25;47.70;;;25.17;;
30818;SDS011;17546;42.674;23.284;2023-11-22T13:11:51;47.75;;;26.40;;
30818;SDS011;17546;42.674;23.284;2023-11-22T13:14:17;47.40;;;26.00;;
30818;SDS011;17546;42.674;23.284;2023-11-22T13:16:43;54.05;;;26.85;;
30818;SDS011;17546;42.674;23.284;2023-11-22T13:19:10;47.38;;;28.58;;
30818;SDS011;17546;42.674;23.284;2023-11-22T13:21:36;50.50;;;27.60;;
30818;SDS011;17546;42.674;23.284;2023-11-22T13:24:02;52.13;;;27.23;;
30818;SDS011;17546;42.674;23.284;2023-11-22T13:26:29;45.03;;;27.13;;
30818;SDS011;17546;42.674;23.284;2023-11-22T13:28:54;45.92;;;27.10;;
30818;SDS011;17546;42.674;23.284;2023-11-22T13:31:21;52.38;;;27.10;;
30818;SDS011;17546;42.674;23.284;2023-11-22T13:33:47;55.33;;;27.30;;
30818;SDS011;17546;42.674;23.284;2023-11-22T13:36:13;58.85;;;29.40;;
30818;SDS011;17546;42.674;23.284;2023-11-22T13:38:39;48.72;;;27.73;;
30818;SDS011;17546;42.674;23.284;2023-11-22T13:41:05;42.90;;;25.20;;
30818;SDS011;17546;42.674;23.284;2023-11-22T13:43:31;43.38;;;25.45;;
30818;SDS011;17546;42.674;23.284;2023-11-22T13:45:58;44.75;;;24.83;;
30818;SDS011;17546;42.674;23.284;2023-11-22T13:48:24;41.60;;;21.83;;
30818;SDS011;17546;42.674;23.284;2023-11-22T13:50:50;51.88;;;24.27;;
30818;SDS011;17546;42.674;23.284;2023-11-22T13:53:15;47.65;;;21.17;;
30818;SDS011;17546;42.674;23.284;2023-11-22T13:55:44;43.42;;;20.80;;
30818;SDS011;17546;42.674;23.284;2023-11-22T13:58:10;41.53;;;19.15;;
30818;SDS011;17546;42.674;23.284;2023-11-22T14:00:36;36.88;;;18.77;;
30818;SDS011;17546;42.674;23.284;2023-11-22T14:03:03;42.55;;;18.40;;
30818;SDS011;17546;42.674;23.284;2023-11-22T14:05:33;39.40;;;18.35;;
30818;SDS011;17546;42.674;23.284;2023-11-22T14:08:01;45.42;;;19.70;;
30818;SDS011;17546;42.674;23.284;2023-11-22T14:10:31;41.22;;;17.98;;
30818;SDS011;17546;42.674;23.284;2023-11-22T14:12:57;38.97;;;17.08;;